Main page
METAR-TAF:

METAR-TAF

Airports :

Donegal Airport

Donegal, Ireland

latitude: 55-02-39N, longitude: 8-20-28W, elevation: 9 m

Current weather observation

The report was made 15 minutes ago, at 13:30 UTC
Wind 12 kt from the Southeast
Temperature 6°C
Humidity 81%
Pressure 989 hPa
Visibility 10 km or more
no clouds below 1500 m and no cumulonimbus

METAR: EIDL 131330Z 13012KT CAVOK 06/03 Q0989

Time: 13:45 (13:45 UTC)

Forecast

The report was made 2 hours and 45 minutes ago, at 11:00 UTC
Forecast valid from 13 at 12 UTC to 13 at 21 UTC
Wind 14 kt from the Southeast
Visibility 10 km or more
Few clouds at a height of 1800 ft
Broken clouds at a height of 3000 ft
Becoming
from 13 at 13 UTC to 13 at 15 UTC
Wind 12 kt from the East/Southeast
Becoming
from 13 at 16 UTC to 13 at 18 UTC
Wind 10 kt from the East/Northeast

TAF: EIDL 131100Z 1312/1321 14014KT 9999 FEW018 BKN030 BECMG 1313/1315 11012KT BECMG 1316/1318 07010KT

Weather observations and forecasts of more than 4000 airports (METAR and TAF reports).

The available stations are represented by yellow and red dots on the map.

Hover mouse over dot to see the name of the station.

Then click to see weather observations and forecasts.

To change the map : click on the green buttons with a black cross to zoom in, on the green button with a dash to zoom out, or on the green arrows for adjacent maps.


METAR-TAF: